CDT,Max TemperatureF,Mean TemperatureF,Min TemperatureF,Max Dew PointF,MeanDew PointF,Min DewpointF,Max Humidity, Mean Humidity, Min Humidity, Max Sea Level PressureIn, Mean Sea Level PressureIn, Min Sea Level PressureIn, Max VisibilityMiles, Mean VisibilityMiles, Min VisibilityMiles, Max Wind SpeedMPH, Mean Wind SpeedMPH, Max Gust SpeedMPH,PrecipitationIn, CloudCover, Events, WindDirDegrees
2013-8-1,86,76,65,72,70,66,100,78,55,30.07,30.01,29.97,10,5,0,13,4,16,0.00,3,Fog-Rain,357
2013-8-2,87,75,62,71,65,61,100,74,48,30.04,30.01,29.96,10,5,1,7,1,9,0.00,0,,173
2013-8-3,78,74,69,74,71,67,100,90,79,30.11,30.04,29.95,10,6,0,14,2,17,0.21,6,Fog-Rain-Thunderstorm,216
2013-8-4,87,77,66,73,69,66,100,79,58,30.13,30.08,30.04,10,4,0,13,5,16,0.00,4,Fog,29
2013-8-5,77,73,69,72,69,64,93,83,73,30.06,30.01,29.92,10,9,2,10,2,14,0.30,5,Rain,115
2013-8-6,80,75,70,75,73,70,100,90,79,30.00,29.94,29.89,10,8,1,10,3,14,0.17,6,Rain-Thunderstorm,137
2013-8-7,90,82,73,77,74,72,93,76,59,29.98,29.92,29.87,10,10,10,12,3,16,0.00,3,,223
2013-8-8,93,83,73,78,75,72,100,82,64,29.96,29.92,29.87,10,9,5,14,3,16,0.00,1,Thunderstorm,172
2013-8-9,92,83,74,77,74,73,94,75,56,30.02,29.97,29.94,10,10,8,15,4,21,0.00,1,,202
2013-8-10,87,80,72,75,73,70,94,80,65,30.13,30.07,30.01,10,7,0,16,3,20,T,3,Fog-Rain,319
2013-8-11,84,78,72,75,72,71,100,85,70,30.16,30.09,30.04,10,8,1,15,1,21,0.36,3,Rain-Thunderstorm,267
2013-8-12,92,81,70,77,73,69,100,82,64,30.10,30.01,29.92,10,8,0,28,5,43,0.45,3,Fog-Rain-Thunderstorm,222
2013-8-13,86,78,70,73,71,66,100,81,61,30.01,29.97,29.93,10,8,1,14,6,18,0.00,4,,289
2013-8-14,77,68,58,66,59,55,87,70,53,30.10,30.06,30.00,10,10,10,18,9,24,0.00,0,,39
2013-8-15,81,68,54,62,58,52,93,72,51,30.09,30.05,30.00,10,10,10,10,4,17,0.00,1,,8
2013-8-16,79,70,61,68,64,59,93,80,67,30.08,30.04,30.00,10,10,10,10,3,13,0.00,5,,100
2013-8-17,79,72,65,68,66,64,93,80,67,30.12,30.07,30.03,10,10,6,13,3,16,T,5,Rain,85
2013-8-18,83,72,60,68,64,59,97,76,55,30.16,30.09,30.06,10,6,0,6,1,12,0.00,3,Fog,115
2013-8-19,87,75,62,70,66,61,100,78,55,30.13,30.09,30.02,10,5,0,8,1,9,0.00,3,Fog,60
2013-8-20,88,77,66,74,68,64,100,81,61,30.13,30.07,30.03,10,6,0,14,1,17,0.22,5,Fog-Rain,74
2013-8-21,91,78,65,74,68,64,100,74,47,30.15,30.10,30.06,10,4,0,7,3,9,T,1,Fog-Rain,187
2013-8-22,92,80,68,75,70,66,100,80,59,30.14,30.10,30.02,10,5,0,7,1,9,0.00,3,Fog-Rain,281
2013-8-23,91,79,67,76,69,66,97,75,52,30.09,30.05,29.99,10,4,0,10,1,14,0.00,1,Fog,67
2013-8-24,90,79,68,74,70,66,97,77,56,30.16,30.11,30.06,10,6,0,12,4,15,0.00,0,Fog,84
2013-8-25,88,80,71,73,71,69,93,77,61,30.29,30.23,30.16,10,9,4,9,2,13,0.00,3,,144
2013-8-26,89,78,66,71,68,64,100,76,51,30.27,30.21,30.14,10,9,2,9,2,12,0.00,1,,164
2013-8-27,89,76,62,72,67,62,97,74,50,30.16,30.10,30.05,10,7,0,9,3,15,0.00,0,Fog,243
2013-8-28,91,78,64,71,67,63,100,75,50,30.09,30.06,30.01,10,8,2,10,3,15,0.00,0,,288
2013-8-29,94,80,66,74,70,65,93,70,46,30.07,30.02,29.97,10,9,6,12,3,14,0.00,0,,293
2013-8-30,95,82,68,73,70,66,97,72,46,30.01,29.96,29.90,10,8,2,9,2,12,0.00,0,,299
2013-8-31,95,83,70,79,72,69,94,70,46,29.93,29.88,29.82,10,10,6,16,4,22,0.02,1,Rain-Thunderstorm,217